Terminal Aerodrome Forecast
Issued by NWS Springfield, MO

Home | Current Version | Previous Version | Text Only | Print | Product List | Glossary On
Versions: 1 2 3 4 5 6 7 8 9 10 11 12 13 14 15 16 17 18 19 20 21 22 23 24 25 26 27 28 29 30 31
000
FTUS43 KSGF 030400 AAA
TAFSGF
TAF AMD
KSGF 030422Z 0304/0324 16018G24KT P6SM OVC012
     FM030800 17016KT 5SM BR OVC010 WS020/21040KT
      TEMPO 0309/0312 2SM -DZ BR OVC008
     FM031200 17013KT 4SM BR OVC006
      TEMPO 0312/0316 2SM -RA BR OVC004
     FM031600 19015KT 4SM -RA BR OVC008
     FM032100 21012KT 5SM BR OVC015=

USA.gov is the U.S. government's official web portal to all federal, state and local government web resources and services.